createdAt,value
2022-10-21T00:01:18.411Z,24.10
2022-10-21T00:03:57.337Z,24.10
2022-10-21T00:06:32.415Z,24.00
2022-10-21T00:09:14.209Z,23.90
2022-10-21T00:11:46.813Z,23.80
2022-10-21T00:14:21.364Z,23.70
2022-10-21T00:16:57.633Z,23.70
2022-10-21T00:19:31.428Z,23.70
2022-10-21T00:22:06.592Z,23.70
2022-10-21T00:24:40.584Z,23.70
2022-10-21T00:27:18.067Z,23.60
2022-10-21T00:29:55.082Z,23.70
2022-10-21T00:32:28.574Z,23.50
2022-10-21T00:35:08.354Z,23.40
2022-10-21T00:37:45.691Z,23.50
2022-10-21T00:40:19.337Z,23.40
2022-10-21T00:42:50.877Z,23.30
2022-10-21T00:45:27.043Z,23.30
2022-10-21T00:48:23.274Z,23.30
2022-10-21T00:51:00.220Z,23.20
2022-10-21T00:53:38.064Z,23.30
2022-10-21T00:56:49.330Z,23.10
2022-10-21T00:59:22.092Z,23.10
2022-10-21T01:01:53.540Z,23.20
2022-10-21T01:04:50.471Z,23.10
2022-10-21T01:07:23.304Z,23.00
2022-10-21T01:09:59.230Z,23.00
2022-10-21T01:12:52.181Z,22.90
2022-10-21T01:15:35.922Z,22.70
2022-10-21T01:18:35.919Z,22.80
2022-10-21T01:21:32.832Z,22.70
2022-10-21T01:24:18.883Z,22.70
2022-10-21T01:27:16.561Z,22.70
2022-10-21T01:30:28.710Z,22.60
2022-10-21T01:33:18.898Z,22.40
2022-10-21T01:36:19.195Z,22.40
2022-10-21T01:39:21.262Z,22.30
2022-10-21T01:42:05.331Z,22.20
2022-10-21T01:44:52.543Z,22.10
2022-10-21T01:47:40.328Z,22.00
2022-10-21T01:50:34.723Z,22.00
2022-10-21T01:53:19.802Z,21.70
2022-10-21T01:55:55.562Z,21.70
2022-10-21T01:58:50.690Z,21.60
2022-10-21T02:04:33.575Z,21.40
2022-10-21T02:07:21.257Z,21.40
2022-10-21T02:09:58.114Z,21.30
2022-10-21T02:12:32.110Z,21.30
2022-10-21T02:15:33.561Z,21.30
2022-10-21T02:19:09.394Z,21.30
2022-10-21T02:21:47.940Z,21.40
2022-10-21T02:24:55.935Z,21.30
2022-10-21T02:27:45.725Z,21.30
2022-10-21T02:30:22.189Z,21.10
2022-10-21T02:33:48.102Z,21.10
2022-10-21T02:36:34.859Z,21.10
2022-10-21T02:39:23.202Z,21.00
2022-10-21T02:42:28.790Z,21.00
2022-10-21T02:45:06.045Z,21.00
2022-10-21T02:48:14.507Z,21.10
2022-10-21T02:50:47.028Z,21.10
2022-10-21T03:10:15.131Z,20.90
2022-10-21T03:12:48.854Z,20.70
2022-10-21T03:15:32.614Z,20.90
2022-10-21T03:18:10.859Z,20.60
2022-10-21T03:20:42.710Z,20.80
2022-10-21T03:23:15.491Z,20.70
2022-10-21T03:25:59.169Z,20.60
2022-10-21T03:28:47.340Z,20.50
2022-10-21T03:31:31.842Z,20.70
2022-10-21T03:34:12.559Z,20.80
2022-10-21T03:36:51.976Z,20.80
2022-10-21T03:39:24.057Z,21.00
2022-10-21T03:41:57.415Z,20.90
2022-10-21T03:44:36.210Z,21.00
2022-10-21T03:51:01.726Z,21.10
2022-10-21T03:53:43.002Z,21.00
2022-10-21T03:56:16.142Z,20.90
2022-10-21T03:58:47.042Z,20.90
2022-10-21T04:01:18.748Z,20.80
2022-10-21T04:03:50.125Z,20.70
2022-10-21T04:06:21.530Z,20.50
2022-10-21T04:08:52.835Z,20.40
2022-10-21T04:11:23.954Z,20.30
2022-10-21T04:13:54.855Z,20.40
2022-10-21T04:16:25.277Z,20.40
2022-10-21T04:18:56.705Z,20.60
2022-10-21T04:21:27.328Z,20.50
2022-10-21T04:23:58.485Z,20.40
2022-10-21T04:26:29.569Z,20.50
2022-10-21T04:29:00.899Z,20.50
2022-10-21T04:31:32.292Z,20.40
2022-10-21T04:34:04.481Z,20.40
2022-10-21T04:36:34.708Z,20.50
2022-10-21T04:39:04.225Z,20.40
2022-10-21T04:41:36.748Z,20.40
2022-10-21T04:44:08.028Z,20.40
2022-10-21T04:46:38.435Z,20.50
2022-10-21T04:49:08.393Z,20.60
2022-10-21T04:51:38.502Z,20.50
2022-10-21T04:54:09.721Z,20.50
2022-10-21T04:56:39.503Z,20.40
2022-10-21T04:59:10.133Z,20.40
2022-10-21T05:01:40.442Z,20.40
2022-10-21T05:04:12.736Z,20.40
2022-10-21T05:06:47.564Z,20.50
2022-10-21T05:09:18.394Z,20.40
2022-10-21T05:11:48.532Z,20.30
2022-10-21T05:14:22.884Z,20.20
2022-10-21T05:16:53.123Z,20.00
2022-10-21T05:19:24.040Z,19.90
2022-10-21T05:21:57.803Z,19.80
2022-10-21T05:24:28.098Z,19.90
2022-10-21T05:26:58.577Z,19.70
2022-10-21T05:29:28.768Z,19.70
2022-10-21T05:31:59.740Z,19.40
2022-10-21T05:34:29.249Z,19.40
2022-10-21T05:37:00.783Z,19.40
2022-10-21T05:39:30.956Z,19.30
2022-10-21T05:42:01.975Z,19.20
2022-10-21T05:44:32.634Z,19.20
2022-10-21T05:47:05.985Z,19.20
2022-10-21T05:49:35.312Z,19.20
2022-10-21T05:52:05.299Z,19.10
2022-10-21T05:54:35.521Z,19.10
2022-10-21T05:57:08.965Z,19.10
2022-10-21T05:59:38.935Z,19.20
2022-10-21T06:02:08.455Z,19.00
2022-10-21T06:04:38.997Z,19.10
2022-10-21T06:07:10.972Z,19.00
2022-10-21T06:09:41.054Z,19.10
2022-10-21T06:12:14.252Z,19.10
2022-10-21T06:14:45.154Z,19.00
2022-10-21T06:17:15.950Z,19.00
2022-10-21T06:19:50.131Z,19.00
2022-10-21T06:22:20.849Z,18.90
2022-10-21T06:24:54.710Z,18.80
2022-10-21T06:27:24.633Z,18.90
2022-10-21T06:29:55.489Z,19.00
2022-10-21T06:32:26.728Z,18.90
2022-10-21T06:34:56.932Z,18.80
2022-10-21T06:37:28.802Z,18.70
2022-10-21T06:39:59.637Z,18.60
2022-10-21T06:42:30.345Z,18.50
2022-10-21T06:45:01.067Z,18.40
2022-10-21T06:47:32.361Z,18.40
2022-10-21T06:50:06.359Z,18.20
2022-10-21T06:52:37.667Z,18.20
2022-10-21T06:55:09.081Z,18.30
2022-10-21T06:57:40.477Z,18.10
2022-10-21T07:00:13.908Z,18.20
2022-10-21T07:02:44.896Z,18.20
2022-10-21T07:05:16.949Z,18.10
2022-10-21T07:07:48.668Z,18.10
2022-10-21T07:10:19.720Z,18.00
2022-10-21T07:12:50.251Z,18.00
2022-10-21T07:15:20.568Z,18.00
2022-10-21T07:17:50.790Z,18.10
2022-10-21T07:20:20.244Z,18.00
2022-10-21T07:22:53.334Z,18.10
2022-10-21T07:25:23.300Z,18.20
2022-10-21T07:27:53.426Z,18.30
2022-10-21T07:30:26.700Z,18.30
2022-10-21T07:32:56.673Z,18.40
2022-10-21T07:35:27.621Z,18.50
2022-10-21T07:38:00.655Z,18.40
2022-10-21T07:40:32.847Z,18.30
2022-10-21T07:43:03.798Z,18.30
2022-10-21T07:45:33.720Z,18.20
2022-10-21T07:48:03.799Z,18.20
2022-10-21T07:50:34.662Z,18.20
2022-10-21T07:53:11.961Z,18.30
2022-10-21T07:55:46.480Z,18.20
2022-10-21T07:58:18.887Z,18.30
2022-10-21T08:00:48.664Z,18.30
2022-10-21T08:03:19.342Z,18.20
2022-10-21T08:05:52.602Z,18.10
2022-10-21T08:08:25.720Z,18.10
2022-10-21T08:10:58.024Z,18.10
2022-10-21T08:13:35.604Z,18.10
2022-10-21T08:16:08.083Z,18.10
2022-10-21T08:18:38.087Z,18.00
2022-10-21T08:21:10.545Z,17.90
2022-10-21T08:23:40.524Z,17.90
2022-10-21T08:26:17.145Z,17.80
2022-10-21T08:28:50.662Z,17.80
2022-10-21T08:31:25.155Z,17.90
2022-10-21T08:33:57.242Z,18.00
2022-10-21T08:36:28.649Z,17.90
2022-10-21T08:38:59.340Z,17.90
2022-10-21T08:41:31.710Z,17.70
2022-10-21T08:44:11.724Z,17.60
2022-10-21T08:46:48.657Z,17.60
2022-10-21T08:49:29.997Z,17.60
2022-10-21T08:52:18.413Z,17.60
2022-10-21T08:54:56.471Z,17.50
2022-10-21T08:57:26.587Z,17.50
2022-10-21T08:59:57.781Z,17.50
2022-10-21T09:02:45.377Z,17.50
2022-10-21T09:05:52.572Z,17.30
2022-10-21T09:08:27.745Z,17.30
2022-10-21T09:11:03.632Z,17.30
2022-10-21T09:13:52.794Z,17.20
2022-10-21T09:16:37.949Z,17.20
2022-10-21T09:20:05.387Z,17.10
2022-10-21T09:22:46.957Z,17.10
2022-10-21T09:25:57.674Z,16.90
2022-10-21T09:28:28.570Z,17.00
2022-10-21T09:31:20.098Z,17.10
2022-10-21T09:34:00.674Z,17.10
2022-10-21T09:36:48.826Z,17.00
2022-10-21T09:39:26.974Z,17.10
2022-10-21T09:42:01.651Z,17.00
2022-10-21T09:44:35.996Z,16.90
2022-10-21T09:47:20.541Z,16.90
2022-10-21T09:50:07.256Z,16.80
2022-10-21T09:52:40.441Z,16.70
2022-10-21T09:55:15.657Z,16.90
2022-10-21T09:58:24.948Z,16.90
2022-10-21T10:00:57.447Z,16.90
2022-10-21T10:03:39.107Z,16.90
2022-10-21T10:06:13.008Z,16.80
2022-10-21T10:08:44.542Z,16.80
2022-10-21T10:11:23.013Z,16.90
2022-10-21T10:13:56.928Z,16.80
2022-10-21T10:16:35.849Z,16.70
2022-10-21T10:19:28.230Z,16.70
2022-10-21T10:22:15.374Z,16.60
2022-10-21T10:24:46.905Z,16.60
2022-10-21T10:27:24.080Z,16.40
2022-10-21T10:30:00.915Z,16.60
2022-10-21T10:32:36.275Z,16.60
2022-10-21T10:35:17.112Z,16.60
2022-10-21T10:37:49.906Z,16.60
2022-10-21T10:40:25.908Z,16.40
2022-10-21T10:43:08.247Z,16.30
2022-10-21T10:45:38.426Z,16.30
2022-10-21T10:48:09.292Z,16.30
2022-10-21T10:50:52.012Z,16.10
2022-10-21T10:53:43.675Z,16.10
2022-10-21T10:56:20.910Z,16.20
2022-10-21T10:59:18.062Z,16.20
2022-10-21T11:02:13.621Z,15.90
2022-10-21T11:05:05.151Z,15.70
2022-10-21T11:07:48.150Z,15.80
2022-10-21T11:10:38.684Z,16.00
2022-10-21T11:13:18.167Z,16.00
2022-10-21T11:15:54.112Z,16.10
2022-10-21T11:18:31.838Z,15.90
2022-10-21T11:21:13.087Z,15.70
2022-10-21T11:23:57.991Z,15.80
2022-10-21T11:27:09.746Z,15.60
2022-10-21T11:30:06.554Z,15.80
2022-10-21T11:32:54.866Z,15.80
2022-10-21T11:35:45.959Z,15.70
2022-10-21T11:38:43.146Z,15.80
2022-10-21T11:41:36.874Z,16.00
2022-10-21T11:44:29.424Z,15.80
2022-10-21T11:47:14.613Z,15.70
2022-10-21T11:49:58.025Z,15.70
2022-10-21T11:52:37.797Z,15.80
2022-10-21T11:55:41.677Z,15.70
2022-10-21T11:58:31.939Z,15.80
2022-10-21T12:01:24.898Z,16.00
2022-10-21T12:04:26.278Z,15.90
2022-10-21T12:07:17.449Z,15.60
2022-10-21T12:10:02.814Z,15.80
2022-10-21T12:12:41.084Z,15.70
2022-10-21T12:15:19.359Z,16.00
2022-10-21T12:17:51.816Z,16.10
2022-10-21T12:20:28.200Z,16.10
2022-10-21T12:23:07.213Z,15.90
2022-10-21T12:25:42.866Z,16.00
2022-10-21T12:28:16.165Z,16.00
2022-10-21T12:31:19.080Z,16.00
2022-10-21T12:33:52.923Z,15.80
2022-10-21T12:36:25.161Z,15.70
2022-10-21T12:39:00.652Z,15.60
2022-10-21T12:41:36.685Z,15.60
2022-10-21T12:44:37.927Z,15.50
2022-10-21T12:47:46.079Z,15.50
2022-10-21T12:50:31.302Z,15.50
2022-10-21T12:53:30.438Z,15.50
2022-10-21T12:56:03.248Z,15.60
2022-10-21T12:58:39.517Z,15.10
2022-10-21T13:01:39.653Z,15.30
2022-10-21T13:04:34.183Z,15.40
2022-10-21T13:07:07.479Z,15.60
2022-10-21T13:09:53.107Z,15.50
2022-10-21T13:12:26.505Z,15.50
2022-10-21T13:15:22.364Z,15.60
2022-10-21T13:17:59.056Z,15.60
2022-10-21T13:20:34.380Z,15.70
2022-10-21T13:23:33.142Z,15.70
2022-10-21T13:26:16.663Z,15.70
2022-10-21T13:29:20.573Z,15.80
2022-10-21T13:32:20.971Z,15.80
2022-10-21T13:35:00.031Z,16.10
2022-10-21T13:37:44.713Z,16.30
2022-10-21T13:40:23.207Z,16.30
2022-10-21T13:43:04.562Z,16.30
2022-10-21T13:45:50.138Z,16.40
2022-10-21T13:48:21.323Z,16.50
2022-10-21T13:50:54.707Z,16.60
2022-10-21T13:53:36.749Z,16.70
2022-10-21T13:56:18.973Z,16.90
2022-10-21T13:58:49.448Z,17.00
2022-10-21T14:01:22.623Z,17.00
2022-10-21T14:03:58.371Z,17.00
2022-10-21T14:06:37.670Z,17.10
2022-10-21T14:09:09.674Z,17.20
2022-10-21T14:11:49.440Z,17.30
2022-10-21T14:14:24.313Z,17.40
2022-10-21T14:17:04.269Z,17.50
2022-10-21T14:19:38.069Z,17.60
2022-10-21T14:22:22.102Z,17.70
2022-10-21T14:24:58.186Z,17.80
2022-10-21T14:27:33.226Z,17.90
2022-10-21T14:30:11.800Z,18.00
2022-10-21T14:32:42.231Z,18.10
2022-10-21T14:35:14.163Z,18.20
2022-10-21T14:37:52.251Z,18.20
2022-10-21T14:40:32.910Z,18.30
2022-10-21T14:43:13.461Z,18.40
2022-10-21T14:45:52.300Z,18.50
2022-10-21T14:48:29.690Z,18.50
2022-10-21T14:51:10.879Z,18.60
2022-10-21T14:53:59.233Z,18.70
2022-10-21T14:56:44.119Z,18.70
2022-10-21T14:59:19.805Z,18.80
2022-10-21T15:01:49.223Z,18.80
2022-10-21T15:04:59.513Z,18.90
2022-10-21T15:07:31.628Z,19.00
2022-10-21T15:10:16.883Z,19.10
2022-10-21T15:12:51.694Z,19.10
2022-10-21T15:15:41.618Z,19.20
2022-10-21T15:18:22.106Z,19.30
2022-10-21T15:21:27.544Z,19.30
2022-10-21T15:24:01.049Z,19.40
2022-10-21T15:26:38.831Z,19.50
2022-10-21T15:29:23.282Z,19.50
2022-10-21T15:31:54.863Z,19.60
2022-10-21T15:34:24.776Z,19.70
2022-10-21T15:36:59.100Z,19.70
2022-10-21T15:39:28.608Z,19.80
2022-10-21T15:42:02.816Z,19.90
2022-10-21T15:44:36.572Z,20.00
2022-10-21T15:47:11.882Z,20.00
2022-10-21T15:49:43.209Z,20.20
2022-10-21T15:52:13.837Z,20.30
2022-10-21T15:54:44.404Z,20.30
2022-10-21T15:57:24.190Z,20.40
2022-10-21T15:59:54.815Z,20.60
2022-10-21T16:02:25.600Z,20.60
2022-10-21T16:04:56.276Z,20.70
2022-10-21T16:07:33.819Z,20.80
2022-10-21T16:10:14.118Z,20.90
2022-10-21T16:12:43.855Z,21.00
2022-10-21T16:15:17.003Z,21.20
2022-10-21T16:17:49.175Z,21.20
2022-10-21T16:20:34.305Z,21.30
2022-10-21T16:23:04.727Z,21.50
2022-10-21T16:25:36.982Z,21.50
2022-10-21T16:28:06.597Z,21.60
2022-10-21T16:30:43.616Z,21.70
2022-10-21T16:33:13.810Z,21.80
2022-10-21T16:35:49.230Z,21.90
2022-10-21T16:40:55.332Z,22.20
2022-10-21T16:43:27.743Z,22.30
2022-10-21T16:45:58.968Z,22.30
2022-10-21T16:48:28.217Z,22.30
2022-10-21T16:50:58.701Z,22.40
2022-10-21T16:53:30.025Z,22.60
2022-10-21T16:56:00.746Z,22.80
2022-10-21T16:58:30.608Z,22.80
2022-10-21T17:01:02.021Z,22.80
2022-10-21T17:03:32.607Z,22.70
2022-10-21T17:06:04.007Z,22.90
2022-10-21T17:08:33.759Z,23.10
2022-10-21T17:11:08.614Z,23.30
2022-10-21T17:13:39.703Z,23.30
2022-10-21T17:16:10.062Z,23.40
2022-10-21T17:18:39.806Z,23.60
2022-10-21T17:21:23.368Z,23.60
2022-10-21T17:23:58.019Z,23.50
2022-10-21T17:26:31.064Z,23.60
2022-10-21T17:29:00.555Z,23.80
2022-10-21T17:31:31.732Z,23.80
2022-10-21T17:34:07.720Z,23.90
2022-10-21T17:36:38.839Z,23.90
2022-10-21T17:39:09.701Z,24.20
2022-10-21T17:41:40.693Z,24.30
2022-10-21T17:44:14.673Z,23.90
2022-10-21T17:46:56.052Z,23.90
2022-10-21T17:49:28.541Z,24.00
2022-10-21T17:52:00.334Z,23.90
2022-10-21T17:54:31.706Z,24.20
2022-10-21T17:57:04.744Z,24.20
2022-10-21T17:59:36.542Z,24.40
2022-10-21T18:02:05.824Z,24.60
2022-10-21T18:04:36.403Z,24.80
2022-10-21T18:07:09.399Z,24.60
2022-10-21T18:09:40.459Z,24.80
2022-10-21T18:12:10.592Z,24.70
2022-10-21T18:14:40.543Z,24.70
2022-10-21T18:17:10.452Z,24.70
2022-10-21T18:19:40.653Z,24.80
2022-10-21T18:22:09.898Z,24.90
2022-10-21T18:24:40.774Z,24.90
2022-10-21T18:27:12.584Z,25.00
2022-10-21T18:29:43.001Z,25.10
2022-10-21T18:32:14.833Z,25.00
2022-10-21T18:34:44.513Z,25.20
2022-10-21T18:37:15.707Z,25.30
2022-10-21T18:39:45.791Z,25.20
2022-10-21T18:42:15.381Z,25.40
2022-10-21T18:44:45.779Z,25.20
2022-10-21T18:47:18.067Z,25.20
2022-10-21T18:49:47.926Z,25.30
2022-10-21T18:52:19.602Z,25.10
2022-10-21T18:54:50.732Z,25.20
2022-10-21T18:57:21.610Z,25.30
2022-10-21T18:59:55.207Z,25.50
2022-10-21T19:02:28.751Z,25.40
2022-10-21T19:05:01.214Z,25.60
2022-10-21T19:07:32.806Z,25.50
2022-10-21T19:10:03.216Z,25.30
2022-10-21T19:12:34.249Z,25.50
2022-10-21T19:15:03.940Z,25.40
2022-10-21T19:17:33.546Z,25.60
2022-10-21T19:20:04.560Z,25.60
2022-10-21T19:22:34.236Z,25.70
2022-10-21T19:25:03.712Z,25.70
2022-10-21T19:27:33.945Z,25.40
2022-10-21T19:30:03.770Z,25.50
2022-10-21T19:32:33.146Z,25.70
2022-10-21T19:35:02.745Z,25.70
2022-10-21T19:37:33.172Z,25.60
2022-10-21T19:40:02.518Z,25.70
2022-10-21T19:42:34.654Z,25.70
2022-10-21T19:45:06.582Z,25.70
2022-10-21T19:47:36.080Z,25.70
2022-10-21T19:50:07.665Z,25.90
2022-10-21T19:52:42.675Z,25.90
2022-10-21T19:55:12.125Z,25.70
2022-10-21T19:57:42.188Z,25.80
2022-10-21T20:00:12.543Z,25.80
2022-10-21T20:02:43.319Z,25.70
2022-10-21T20:05:15.225Z,26.00
2022-10-21T20:07:45.188Z,25.90
2022-10-21T20:10:15.991Z,26.00
2022-10-21T20:12:48.297Z,25.80
2022-10-21T20:15:17.590Z,25.80
2022-10-21T20:17:47.813Z,25.60
2022-10-21T20:20:19.036Z,25.80
2022-10-21T20:22:51.940Z,25.70
2022-10-21T20:25:22.395Z,25.80
2022-10-21T20:27:53.140Z,25.80
2022-10-21T20:30:23.222Z,25.90
2022-10-21T20:32:56.242Z,25.80
2022-10-21T20:35:26.351Z,25.80
2022-10-21T20:37:55.766Z,25.80
2022-10-21T20:40:28.200Z,25.80
2022-10-21T20:42:58.073Z,25.90
2022-10-21T20:45:28.316Z,25.90
2022-10-21T20:47:58.869Z,25.90
2022-10-21T20:50:29.530Z,26.00
2022-10-21T20:52:59.612Z,26.00
2022-10-21T20:55:29.822Z,26.20
2022-10-21T20:58:01.016Z,26.10
2022-10-21T21:00:31.580Z,26.00
2022-10-21T21:03:01.996Z,26.00
2022-10-21T21:05:38.126Z,25.90
2022-10-21T21:08:10.309Z,26.00
2022-10-21T21:10:41.817Z,25.90
2022-10-21T21:13:12.091Z,26.00
2022-10-21T21:15:42.165Z,26.00
2022-10-21T21:18:16.184Z,26.00
2022-10-21T21:20:46.872Z,26.00
2022-10-21T21:23:20.505Z,25.90
2022-10-21T21:25:51.921Z,25.90
2022-10-21T21:28:25.586Z,25.90
2022-10-21T21:30:54.884Z,26.00
2022-10-21T21:33:24.351Z,26.00
2022-10-21T21:35:57.798Z,26.00
2022-10-21T21:38:29.222Z,25.80
2022-10-21T21:41:00.396Z,26.00
2022-10-21T21:43:32.238Z,26.20
2022-10-21T21:46:03.907Z,26.10
2022-10-21T21:48:34.389Z,26.00
2022-10-21T21:51:13.363Z,26.20
2022-10-21T21:53:44.923Z,26.20
2022-10-21T21:56:15.798Z,26.00
2022-10-21T21:58:45.921Z,26.10
2022-10-21T22:01:20.777Z,26.00
2022-10-21T22:03:52.619Z,26.00
2022-10-21T22:06:28.005Z,25.90
2022-10-21T22:08:58.794Z,25.90
2022-10-21T22:11:31.508Z,26.00
2022-10-21T22:14:01.909Z,26.00
2022-10-21T22:16:34.850Z,25.90
2022-10-21T22:19:06.304Z,26.00
2022-10-21T22:21:36.425Z,25.90
2022-10-21T22:24:08.924Z,25.90
2022-10-21T22:26:38.289Z,25.90
2022-10-21T22:29:08.645Z,25.80
2022-10-21T22:31:41.582Z,25.70
2022-10-21T22:34:12.028Z,25.70
2022-10-21T22:36:43.032Z,25.90
2022-10-21T22:39:13.873Z,26.00
2022-10-21T22:41:43.388Z,26.00
2022-10-21T22:44:14.782Z,25.80
2022-10-21T22:46:45.794Z,25.70
2022-10-21T22:49:16.407Z,25.70
2022-10-21T22:51:46.457Z,25.50
2022-10-21T22:54:36.100Z,25.50
2022-10-21T22:57:06.869Z,25.50
2022-10-21T22:59:39.869Z,25.60
2022-10-21T23:02:10.139Z,25.40
2022-10-21T23:04:41.425Z,25.40
2022-10-21T23:07:14.169Z,25.50
2022-10-21T23:09:46.390Z,25.40
2022-10-21T23:12:16.470Z,25.30
2022-10-21T23:14:45.710Z,25.30
2022-10-21T23:17:17.091Z,25.30
2022-10-21T23:19:46.419Z,25.20
2022-10-21T23:22:20.864Z,25.30
2022-10-21T23:24:52.176Z,25.10
2022-10-21T23:27:21.763Z,25.20
2022-10-21T23:29:51.742Z,25.10
2022-10-21T23:32:20.851Z,25.10
2022-10-21T23:34:55.380Z,25.10
2022-10-21T23:37:26.817Z,25.20
2022-10-21T23:39:56.635Z,25.20
2022-10-21T23:42:27.167Z,25.10
2022-10-21T23:44:58.465Z,24.90
2022-10-21T23:47:27.807Z,24.90
2022-10-21T23:49:57.759Z,24.90
2022-10-21T23:52:28.226Z,24.80
2022-10-21T23:54:58.528Z,24.70
2022-10-21T23:57:29.502Z,24.70
